Time;durP1;ratioP1;P1;durP2;ratioP2;P2;SDS_P1;SDS_P2;PMS_P1;PMS_P2;Temp;Humidity;BMP_temperature;BMP_pressure;BME280_temperature;BME280_humidity;BME280_pressure;Samples;Min_cycle;Max_cycle;Signal;HPM_P1;HPM_P2
2023/06/01 00:01:55;;;;;;;4.38;3.45;;;13.40;99.90;;;;;;5044702;28;20036;-60
2023/06/01 00:04:22;;;;;;;7.70;3.75;;;13.40;99.90;;;;;;5032078;28;20317;-59
2023/06/01 00:06:49;;;;;;;8.10;3.80;;;13.30;99.90;;;;;;5046573;28;20400;-59
2023/06/01 00:09:17;;;;;;;5.68;3.50;;;13.40;99.90;;;;;;5037664;28;20059;-60
2023/06/01 00:11:43;;;;;;;7.45;3.33;;;13.40;99.90;;;;;;5032153;28;20404;-60
2023/06/01 00:14:10;;;;;;;8.07;3.95;;;13.40;99.90;;;;;;5041732;28;20119;-60
2023/06/01 00:16:37;;;;;;;14.02;6.10;;;13.30;99.90;;;;;;5034217;28;20056;-60
2023/06/01 00:19:04;;;;;;;8.15;4.07;;;13.30;99.90;;;;;;5022656;28;20093;-58
2023/06/01 00:21:32;;;;;;;9.38;4.05;;;13.30;99.90;;;;;;4685177;28;10000642;-60
2023/06/01 00:24:00;;;;;;;8.75;4.53;;;13.30;99.90;;;;;;5031559;28;20045;-60
2023/06/01 00:26:31;;;;;;;11.32;4.70;;;13.30;99.90;;;;;;5038794;28;20051;-60
2023/06/01 00:28:59;;;;;;;7.10;3.83;;;13.20;99.90;;;;;;5038952;28;20048;-59
2023/06/01 00:31:26;;;;;;;9.13;4.55;;;13.20;99.90;;;;;;5032068;28;20412;-59
2023/06/01 00:33:53;;;;;;;10.10;4.60;;;13.20;99.90;;;;;;5036846;28;20045;-61
2023/06/01 00:36:20;;;;;;;6.68;4.32;;;13.10;99.90;;;;;;5040412;28;20187;-60
2023/06/01 00:38:47;;;;;;;8.70;4.50;;;13.10;99.90;;;;;;5039284;28;20042;-60
2023/06/01 00:41:14;;;;;;;5.63;4.13;;;13.10;99.90;;;;;;5036609;28;20048;-59
2023/06/01 00:43:41;;;;;;;9.45;4.05;;;13.00;99.90;;;;;;5041078;28;20064;-60
2023/06/01 00:46:08;;;;;;;8.25;5.28;;;13.00;99.90;;;;;;5034323;28;20095;-60
2023/06/01 00:48:35;;;;;;;9.90;5.07;;;13.00;99.90;;;;;;5025309;28;20045;-60
2023/06/01 00:51:01;;;;;;;9.52;4.05;;;13.00;99.90;;;;;;5014289;28;20053;-60
2023/06/01 00:53:29;;;;;;;9.52;4.65;;;13.00;99.90;;;;;;5044640;28;20045;-60
2023/06/01 00:55:56;;;;;;;5.65;4.32;;;13.00;99.90;;;;;;5014238;28;20061;-60
2023/06/01 00:58:23;;;;;;;8.95;5.70;;;13.00;99.90;;;;;;5046517;28;20056;-60
2023/06/01 01:00:53;;;;;;;7.97;4.63;;;13.00;99.90;;;;;;5036731;28;20550;-60
2023/06/01 01:03:21;;;;;;;8.38;4.97;;;12.90;99.90;;;;;;5046317;28;20120;-60
2023/06/01 01:05:50;;;;;;;7.53;4.90;;;12.90;99.90;;;;;;5040552;28;20115;-59
2023/06/01 01:08:37;;;;;;;11.57;5.05;;;12.80;99.90;;;;;;5037558;28;20049;-60
2023/06/01 01:11:09;;;;;;;9.32;4.88;;;12.80;99.90;;;;;;5035586;28;20041;-59
2023/06/01 01:13:49;;;;;;;11.10;4.78;;;12.70;99.90;;;;;;5027997;28;20049;-61
2023/06/01 01:16:27;;;;;;;9.13;4.88;;;12.80;99.90;;;;;;5050012;28;20363;-58
2023/06/01 01:19:31;;;;;;;11.43;5.47;;;12.70;99.90;;;;;;5018167;28;20048;-60
2023/06/01 01:22:17;;;;;;;;;;;12.70;99.90;;;;;;5039772;28;20045;-60
2023/06/01 01:25:09;;;;;;;14.00;5.45;;;12.80;99.90;;;;;;5034719;28;19959;-60
2023/06/01 01:27:53;;;;;;;16.63;5.85;;;12.70;99.90;;;;;;5043685;28;20045;-58
2023/06/01 01:30:21;;;;;;;11.30;5.45;;;12.70;99.90;;;;;;5038971;28;20052;-58
2023/06/01 01:32:49;;;;;;;12.93;5.55;;;12.70;99.90;;;;;;5020910;28;20049;-60
2023/06/01 01:35:17;;;;;;;7.47;4.50;;;12.60;99.90;;;;;;5026915;28;20045;-60
2023/06/01 01:37:51;;;;;;;8.52;6.25;;;12.70;99.90;;;;;;5036699;28;20057;-59
2023/06/01 01:40:18;;;;;;;8.52;4.80;;;12.60;99.90;;;;;;5046422;28;20128;-59
2023/06/01 01:42:45;;;;;;;15.73;5.03;;;12.60;99.90;;;;;;5035177;28;20493;-59
2023/06/01 01:45:12;;;;;;;7.72;4.35;;;12.50;99.90;;;;;;5030526;28;20045;-59
2023/06/01 01:47:48;;;;;;;9.40;4.75;;;12.50;99.90;;;;;;5018480;28;20057;-59
2023/06/01 01:50:15;;;;;;;9.77;5.15;;;12.40;99.90;;;;;;5048273;28;20083;-60
2023/06/01 01:52:42;;;;;;;12.43;5.22;;;12.50;99.90;;;;;;5022255;28;20132;-60
2023/06/01 01:55:09;;;;;;;9.88;5.55;;;12.50;99.90;;;;;;5027530;28;20151;-59
2023/06/01 01:57:36;;;;;;;9.55;4.72;;;12.50;99.90;;;;;;5044482;28;20077;-59
2023/06/01 02:00:06;;;;;;;9.48;4.70;;;12.50;99.90;;;;;;5018537;28;20595;-58
2023/06/01 02:02:32;;;;;;;10.48;5.25;;;12.50;99.90;;;;;;5042621;28;20045;-59
2023/06/01 02:04:59;;;;;;;10.07;5.10;;;12.40;99.90;;;;;;5019680;28;20076;-60
2023/06/01 02:07:26;;;;;;;8.25;4.95;;;12.40;99.90;;;;;;5041213;28;20040;-60
2023/06/01 02:09:53;;;;;;;10.05;4.70;;;12.30;99.90;;;;;;5038406;28;20049;-59
2023/06/01 02:12:20;;;;;;;11.07;5.35;;;12.30;99.90;;;;;;5039532;28;20046;-59
2023/06/01 02:14:47;;;;;;;6.72;4.35;;;12.30;99.90;;;;;;5041402;28;20049;-59
2023/06/01 02:17:15;;;;;;;17.48;5.70;;;12.30;99.90;;;;;;5039406;28;20041;-62
2023/06/01 02:19:43;;;;;;;13.48;6.65;;;12.30;99.90;;;;;;5041264;28;20535;-59
2023/06/01 02:22:10;;;;;;;10.85;5.03;;;12.30;99.90;;;;;;5036803;28;20130;-59
2023/06/01 02:24:37;;;;;;;15.20;5.72;;;12.30;99.90;;;;;;5042002;28;20489;-60
2023/06/01 02:27:04;;;;;;;15.43;4.82;;;12.20;99.90;;;;;;5036369;28;20040;-61
2023/06/01 02:29:31;;;;;;;10.07;4.38;;;12.30;99.90;;;;;;5043837;28;20052;-60
2023/06/01 02:31:57;;;;;;;7.38;4.22;;;12.30;99.90;;;;;;5036168;28;20045;-60
2023/06/01 02:34:25;;;;;;;7.93;4.88;;;12.30;99.90;;;;;;5033337;28;20084;-60
2023/06/01 02:36:55;;;;;;;9.35;4.75;;;12.30;99.90;;;;;;5031695;28;20038;-61
2023/06/01 02:39:23;;;;;;;8.50;4.80;;;12.30;99.90;;;;;;5028260;28;20143;-60
2023/06/01 02:41:50;;;;;;;8.75;4.65;;;12.20;99.90;;;;;;5033236;28;20484;-59
2023/06/01 02:44:17;;;;;;;13.43;4.97;;;12.30;99.90;;;;;;5044476;28;20041;-61
2023/06/01 02:46:43;;;;;;;7.32;4.53;;;12.20;99.90;;;;;;5035179;28;20045;-60
2023/06/01 02:49:10;;;;;;;12.50;5.20;;;12.30;99.90;;;;;;5041787;28;20087;-60
2023/06/01 02:51:37;;;;;;;8.80;4.85;;;12.20;99.90;;;;;;5035973;28;20512;-60
2023/06/01 02:54:04;;;;;;;10.07;4.97;;;12.20;99.90;;;;;;5040584;28;20049;-59
2023/06/01 02:56:31;;;;;;;12.00;5.15;;;12.20;99.90;;;;;;5037834;28;20045;-60
2023/06/01 02:58:57;;;;;;;11.43;4.65;;;12.20;99.90;;;;;;5038453;28;20045;-60
2023/06/01 03:01:24;;;;;;;10.60;5.00;;;12.20;99.90;;;;;;5040364;28;20050;-60
2023/06/01 03:03:52;;;;;;;9.38;4.97;;;12.20;99.90;;;;;;5020285;28;20053;-60
2023/06/01 03:06:21;;;;;;;8.93;4.30;;;12.10;99.90;;;;;;5040321;28;20132;-59
2023/06/01 03:08:48;;;;;;;8.55;4.85;;;12.20;99.90;;;;;;5031990;28;20056;-57
2023/06/01 03:11:15;;;;;;;12.80;5.68;;;12.10;99.90;;;;;;5038024;28;20041;-60
2023/06/01 03:13:42;;;;;;;15.32;5.35;;;12.20;99.90;;;;;;5041832;28;20045;-60
2023/06/01 03:16:09;;;;;;;11.77;4.72;;;12.10;99.90;;;;;;5035596;28;20049;-59
2023/06/01 03:18:36;;;;;;;8.05;4.93;;;12.10;99.90;;;;;;5044372;28;20045;-61
2023/06/01 03:21:05;;;;;;;9.63;4.95;;;12.10;99.90;;;;;;5033216;28;20309;-60
2023/06/01 03:23:32;;;;;;;14.20;4.60;;;12.10;99.90;;;;;;5046124;28;20121;-58
2023/06/01 03:25:59;;;;;;;13.73;4.65;;;12.00;99.90;;;;;;5032853;28;20095;-60
2023/06/01 03:28:25;;;;;;;12.13;6.05;;;12.00;99.90;;;;;;5046212;28;20059;-57
2023/06/01 03:30:52;;;;;;;13.60;7.00;;;11.90;99.90;;;;;;5034942;28;20207;-59
2023/06/01 03:33:19;;;;;;;10.63;5.72;;;11.90;99.90;;;;;;5047672;28;20052;-60
2023/06/01 03:35:46;;;;;;;12.70;5.57;;;11.90;99.90;;;;;;5041099;28;20056;-59
2023/06/01 03:38:13;;;;;;;11.18;4.35;;;11.90;99.90;;;;;;5038405;28;20045;-59
2023/06/01 03:40:40;;;;;;;10.25;5.07;;;11.90;99.90;;;;;;5040173;28;20056;-61
2023/06/01 03:43:06;;;;;;;14.85;5.85;;;11.90;99.90;;;;;;5036732;28;20050;-59
2023/06/01 03:45:33;;;;;;;10.00;5.10;;;11.90;99.90;;;;;;5037498;28;20053;-59
2023/06/01 03:48:00;;;;;;;11.50;5.65;;;11.90;99.90;;;;;;5039146;28;20511;-59
2023/06/01 03:50:27;;;;;;;8.80;4.93;;;12.00;99.90;;;;;;5037144;28;20411;-59
2023/06/01 03:52:54;;;;;;;12.93;5.13;;;11.90;99.90;;;;;;5039732;28;20077;-60
2023/06/01 03:55:22;;;;;;;7.20;4.45;;;11.90;99.90;;;;;;5036611;28;20041;-61
2023/06/01 03:57:49;;;;;;;14.07;4.72;;;11.80;99.90;;;;;;5039430;28;20042;-60
2023/06/01 04:00:19;;;;;;;12.35;4.60;;;11.90;99.90;;;;;;5035741;28;20052;-60
2023/06/01 04:02:52;;;;;;;14.77;6.80;;;11.90;99.90;;;;;;5040716;28;20049;-60
2023/06/01 04:05:20;;;;;;;8.80;4.18;;;11.90;99.90;;;;;;5023867;28;20424;-60
2023/06/01 04:07:48;;;;;;;7.82;4.85;;;11.90;99.90;;;;;;5041685;28;20048;-60
2023/06/01 04:10:16;;;;;;;11.45;5.18;;;11.90;99.90;;;;;;5032257;28;20122;-59
2023/06/01 04:12:44;;;;;;;10.65;4.72;;;11.80;99.90;;;;;;5043792;28;20057;-59
2023/06/01 04:15:11;;;;;;;6.50;4.30;;;11.80;99.90;;;;;;5030466;28;20045;-59
2023/06/01 04:17:38;;;;;;;11.80;5.28;;;11.80;99.90;;;;;;5043601;28;20049;-60
2023/06/01 04:20:06;;;;;;;7.97;4.57;;;11.80;99.90;;;;;;5030942;28;20061;-61
2023/06/01 04:22:34;;;;;;;12.38;5.40;;;11.80;99.90;;;;;;5042506;28;20116;-61
2023/06/01 04:25:01;;;;;;;11.25;5.38;;;11.90;99.90;;;;;;5033110;28;20049;-58
2023/06/01 04:27:28;;;;;;;10.18;5.13;;;11.90;99.90;;;;;;5040127;28;20416;-58
2023/06/01 04:29:58;;;;;;;11.48;5.18;;;11.90;99.90;;;;;;5033839;28;20050;-59
2023/06/01 04:32:27;;;;;;;12.45;5.47;;;11.90;99.90;;;;;;5040618;28;20087;-59
2023/06/01 04:34:56;;;;;;;11.93;6.28;;;11.90;99.90;;;;;;5044825;28;20258;-59
2023/06/01 04:37:24;;;;;;;11.10;5.20;;;11.80;99.90;;;;;;5036405;28;20099;-59
2023/06/01 04:39:51;;;;;;;12.77;5.28;;;11.80;99.90;;;;;;5038477;28;20080;-59
2023/06/01 04:42:18;;;;;;;13.52;6.70;;;11.70;99.90;;;;;;5038216;28;20053;-59
2023/06/01 04:44:49;;;;;;;13.38;5.55;;;11.70;99.90;;;;;;5036604;28;20049;-59
2023/06/01 04:47:16;;;;;;;11.70;6.07;;;11.70;99.90;;;;;;5038041;28;20320;-59
2023/06/01 04:49:43;;;;;;;11.35;6.18;;;11.70;99.90;;;;;;5039443;28;20405;-59
2023/06/01 04:52:10;;;;;;;14.38;6.18;;;11.70;99.90;;;;;;5035444;28;20045;-63
2023/06/01 04:54:37;;;;;;;14.45;5.70;;;11.70;99.90;;;;;;5039495;28;20053;-59
2023/06/01 04:57:06;;;;;;;8.48;5.47;;;11.70;99.90;;;;;;5034072;28;20052;-60
2023/06/01 04:59:33;;;;;;;10.18;6.18;;;11.70;99.90;;;;;;5040698;28;20045;-59
2023/06/01 05:02:00;;;;;;;10.15;5.88;;;11.70;99.90;;;;;;5031891;28;20500;-59
2023/06/01 05:04:27;;;;;;;11.52;4.85;;;11.70;99.90;;;;;;5042631;28;20052;-59
2023/06/01 05:06:54;;;;;;;8.75;5.00;;;11.70;99.90;;;;;;5029685;28;20060;-59
2023/06/01 05:09:21;;;;;;;12.05;5.40;;;11.60;99.90;;;;;;5043317;28;20276;-58
2023/06/01 05:11:48;;;;;;;12.45;6.57;;;11.70;99.90;;;;;;5030905;28;20040;-59
2023/06/01 05:14:15;;;;;;;12.43;6.28;;;11.80;99.90;;;;;;5042528;28;20217;-61
2023/06/01 05:16:41;;;;;;;7.25;4.75;;;11.80;99.90;;;;;;5033152;28;20046;-58
2023/06/01 05:19:08;;;;;;;11.50;5.30;;;11.80;99.90;;;;;;5039946;28;20052;-59
2023/06/01 05:21:35;;;;;;;8.35;5.05;;;11.80;99.90;;;;;;5033690;28;20512;-59
2023/06/01 05:24:02;;;;;;;12.05;6.32;;;11.80;99.90;;;;;;5035859;28;20515;-59
2023/06/01 05:26:30;;;;;;;10.85;7.38;;;11.80;99.90;;;;;;5023700;28;20463;-59
2023/06/01 05:28:56;;;;;;;12.05;5.32;;;11.80;99.90;;;;;;5045322;28;20048;-59
2023/06/01 05:31:23;;;;;;;10.20;5.07;;;11.90;99.90;;;;;;5043685;28;20041;-60
2023/06/01 05:33:51;;;;;;;9.23;6.03;;;11.90;99.90;;;;;;5037355;28;20037;-59
2023/06/01 05:36:18;;;;;;;12.27;4.85;;;11.90;99.90;;;;;;5018716;28;20167;-59
2023/06/01 05:38:45;;;;;;;12.18;5.32;;;11.80;99.90;;;;;;5035052;28;20561;-59
2023/06/01 05:41:12;;;;;;;11.85;5.90;;;11.80;99.90;;;;;;5035848;28;20080;-60
2023/06/01 05:43:38;;;;;;;16.13;5.32;;;11.80;99.90;;;;;;5041069;28;20075;-60
2023/06/01 05:46:06;;;;;;;9.20;5.18;;;11.90;99.90;;;;;;5035881;28;20099;-59
2023/06/01 05:48:33;;;;;;;10.25;6.35;;;11.90;99.90;;;;;;5045860;28;20520;-60
2023/06/01 05:51:00;;;;;;;10.27;5.32;;;11.90;99.90;;;;;;5035018;28;20388;-60
2023/06/01 05:53:28;;;;;;;9.55;4.85;;;11.80;99.90;;;;;;5051371;28;20065;-60
2023/06/01 05:55:55;;;;;;;9.55;6.00;;;11.80;99.90;;;;;;5039193;28;20111;-60
2023/06/01 05:58:22;;;;;;;8.68;4.20;;;11.80;99.90;;;;;;5043754;28;20068;-61
2023/06/01 06:00:50;;;;;;;9.05;5.40;;;11.80;99.90;;;;;;5041051;28;20041;-61
2023/06/01 06:03:17;;;;;;;9.45;5.38;;;11.80;99.90;;;;;;5038643;28;20045;-62
2023/06/01 06:05:44;;;;;;;13.25;5.57;;;11.90;99.90;;;;;;5040324;28;20361;-59
2023/06/01 06:08:11;;;;;;;6.93;5.20;;;11.80;99.90;;;;;;5042622;28;20049;-60
2023/06/01 06:10:38;;;;;;;17.52;5.22;;;11.90;99.90;;;;;;5041425;28;20125;-59
2023/06/01 06:13:05;;;;;;;7.07;4.88;;;11.90;99.90;;;;;;5038297;28;20049;-59
2023/06/01 06:15:32;;;;;;;15.70;6.00;;;12.00;99.90;;;;;;5021376;28;20053;-59
2023/06/01 06:18:01;;;;;;;14.55;6.30;;;12.10;99.90;;;;;;5040873;28;20038;-61
2023/06/01 06:20:29;;;;;;;10.57;5.72;;;12.10;99.90;;;;;;5038901;28;20067;-61
2023/06/01 06:22:56;;;;;;;8.82;5.28;;;12.20;99.90;;;;;;5045406;28;20563;-61
2023/06/01 06:25:23;;;;;;;9.70;5.68;;;12.10;99.90;;;;;;5040269;28;20041;-59
2023/06/01 06:27:50;;;;;;;15.90;5.63;;;12.20;99.90;;;;;;5038965;28;20052;-61
2023/06/01 06:30:17;;;;;;;10.43;5.63;;;12.20;99.90;;;;;;5042111;28;20050;-59
2023/06/01 06:32:43;;;;;;;12.50;5.90;;;12.20;99.90;;;;;;5042673;28;20813;-60
2023/06/01 06:35:12;;;;;;;13.73;5.15;;;12.30;99.90;;;;;;5042824;28;20045;-60
2023/06/01 06:37:43;;;;;;;10.05;6.40;;;12.20;99.90;;;;;;5034857;28;20088;-60
2023/06/01 06:40:11;;;;;;;11.65;5.82;;;12.20;99.90;;;;;;5045763;28;20207;-60
2023/06/01 06:42:37;;;;;;;15.25;6.30;;;12.20;99.90;;;;;;5033414;28;20626;-59
2023/06/01 06:45:05;;;;;;;11.20;5.07;;;12.30;99.90;;;;;;5046553;28;20060;-59
2023/06/01 06:47:32;;;;;;;12.20;5.28;;;12.30;99.90;;;;;;5033661;28;20049;-61
2023/06/01 06:49:59;;;;;;;19.15;5.75;;;12.30;99.90;;;;;;5044918;28;20496;-60
2023/06/01 06:52:26;;;;;;;8.68;5.18;;;12.30;99.90;;;;;;5036480;28;20132;-60
2023/06/01 06:54:53;;;;;;;10.02;5.25;;;12.30;99.90;;;;;;5042640;28;20511;-60
2023/06/01 06:57:20;;;;;;;8.43;3.95;;;12.30;99.90;;;;;;5036306;28;20045;-60
2023/06/01 06:59:46;;;;;;;8.05;4.55;;;12.30;99.90;;;;;;5041769;28;20048;-60
2023/06/01 07:02:13;;;;;;;7.85;5.18;;;12.30;99.90;;;;;;5037721;28;20087;-60
2023/06/01 07:04:40;;;;;;;11.52;5.15;;;12.30;99.90;;;;;;5039773;28;20049;-59
2023/06/01 07:07:08;;;;;;;13.40;5.38;;;12.30;99.90;;;;;;5039814;28;20037;-60
2023/06/01 07:09:35;;;;;;;12.68;5.80;;;12.30;99.90;;;;;;5011751;28;20069;-60
2023/06/01 07:12:02;;;;;;;13.75;6.60;;;12.30;99.90;;;;;;5037942;28;20125;-61
2023/06/01 07:14:29;;;;;;;10.85;5.40;;;12.40;99.90;;;;;;5040486;28;20401;-61
2023/06/01 07:16:56;;;;;;;10.77;7.63;;;12.40;99.90;;;;;;5035770;28;20064;-60
2023/06/01 07:19:23;;;;;;;12.27;5.88;;;12.40;99.90;;;;;;5039906;28;20038;-62
2023/06/01 07:21:50;;;;;;;10.85;5.28;;;12.50;99.90;;;;;;5035224;28;20484;-60
2023/06/01 07:24:20;;;;;;;15.82;6.18;;;12.60;99.90;;;;;;5018490;28;20041;-60
2023/06/01 07:26:51;;;;;;;11.60;5.50;;;12.50;99.90;;;;;;5044544;28;20064;-60
2023/06/01 07:29:17;;;;;;;13.23;5.45;;;12.50;99.90;;;;;;5033451;28;20053;-61
2023/06/01 07:31:45;;;;;;;11.18;6.35;;;12.50;99.90;;;;;;5042815;28;20052;-60
2023/06/01 07:34:12;;;;;;;15.85;5.53;;;12.50;99.90;;;;;;5044502;28;20056;-61
2023/06/01 07:36:40;;;;;;;11.05;6.30;;;12.60;99.90;;;;;;5013890;28;20087;-61
2023/06/01 07:39:08;;;;;;;16.27;6.00;;;12.60;99.90;;;;;;5043934;28;20072;-61
2023/06/01 07:41:35;;;;;;;11.57;6.03;;;12.60;99.90;;;;;;5033741;28;20057;-60
2023/06/01 07:44:02;;;;;;;12.35;5.70;;;12.70;99.90;;;;;;5041659;28;20049;-60
2023/06/01 07:46:29;;;;;;;7.97;4.72;;;12.70;99.90;;;;;;5034993;28;20071;-60
2023/06/01 07:48:57;;;;;;;10.48;4.55;;;12.60;99.90;;;;;;5033933;28;20080;-60
2023/06/01 07:51:24;;;;;;;10.30;4.50;;;12.70;99.90;;;;;;5029300;28;20475;-61
2023/06/01 07:53:51;;;;;;;12.35;5.43;;;12.70;99.90;;;;;;4686575;28;9999727;-58
2023/06/01 07:56:18;;;;;;;8.95;4.93;;;12.80;99.90;;;;;;5034404;28;20045;-61
2023/06/01 07:58:45;;;;;;;6.90;4.68;;;12.90;99.90;;;;;;5035328;28;20350;-60
2023/06/01 08:01:12;;;;;;;13.32;5.38;;;12.90;99.90;;;;;;5033770;28;20076;-60
2023/06/01 08:03:43;;;;;;;13.65;6.30;;;13.00;99.90;;;;;;5034734;28;20049;-60
2023/06/01 08:06:11;;;;;;;12.48;5.22;;;13.10;99.90;;;;;;5030965;28;20049;-60
2023/06/01 08:08:38;;;;;;;11.73;5.28;;;13.10;99.90;;;;;;5028901;28;20052;-61
2023/06/01 08:11:05;;;;;;;14.13;5.82;;;13.10;99.90;;;;;;5034693;28;20055;-59
2023/06/01 08:13:35;;;;;;;15.35;6.20;;;13.10;99.90;;;;;;5040565;28;20111;-60
2023/06/01 08:16:03;;;;;;;12.45;5.30;;;13.10;99.90;;;;;;5043837;28;20133;-61
2023/06/01 08:18:30;;;;;;;10.02;5.03;;;13.10;99.90;;;;;;5037962;28;20172;-60
2023/06/01 08:20:57;;;;;;;13.68;5.90;;;13.20;99.90;;;;;;5035224;28;20041;-60
2023/06/01 08:23:25;;;;;;;9.52;4.78;;;13.10;99.90;;;;;;5043098;28;20960;-61
2023/06/01 08:25:52;;;;;;;15.85;5.13;;;13.20;99.90;;;;;;5033271;28;20045;-61
2023/06/01 08:28:18;;;;;;;13.32;5.22;;;13.20;99.90;;;;;;5041822;28;20052;-60
2023/06/01 08:30:45;;;;;;;11.60;4.90;;;13.30;99.90;;;;;;5037496;28;20057;-60
2023/06/01 08:33:12;;;;;;;11.15;5.15;;;13.30;99.90;;;;;;5036273;28;20057;-60
2023/06/01 08:35:39;;;;;;;10.85;4.13;;;13.30;99.90;;;;;;5038807;28;20122;-61
2023/06/01 08:38:06;;;;;;;9.43;5.05;;;13.40;99.90;;;;;;5038660;28;20468;-61
2023/06/01 08:40:33;;;;;;;11.77;4.60;;;13.50;99.90;;;;;;5022159;28;20382;-60
2023/06/01 08:43:26;;;;;;;9.73;4.90;;;13.50;99.90;;;;;;5020068;28;20052;-59
2023/06/01 08:45:54;;;;;;;13.30;5.00;;;13.60;99.90;;;;;;5033390;28;20072;-61
2023/06/01 08:48:24;;;;;;;10.73;5.32;;;13.60;99.90;;;;;;5027152;28;20128;-63
2023/06/01 08:50:53;;;;;;;12.43;4.15;;;13.70;99.90;;;;;;5020207;28;20374;-61
2023/06/01 08:53:21;;;;;;;10.98;5.45;;;13.70;99.90;;;;;;5020687;28;20389;-61
2023/06/01 08:55:52;;;;;;;8.73;4.68;;;13.70;99.90;;;;;;5023596;28;20048;-60
2023/06/01 08:58:19;;;;;;;11.77;4.55;;;13.80;99.90;;;;;;5030597;28;20099;-59
2023/06/01 09:00:50;;;;;;;12.68;4.85;;;13.80;99.90;;;;;;5029631;28;20496;-60
2023/06/01 09:03:16;;;;;;;20.25;6.05;;;13.80;99.90;;;;;;5019042;28;20095;-59
2023/06/01 09:05:44;;;;;;;8.15;4.63;;;13.80;99.90;;;;;;5036340;28;20049;-58
2023/06/01 09:08:10;;;;;;;11.63;5.25;;;13.90;99.90;;;;;;5034708;28;20465;-60
2023/06/01 09:10:37;;;;;;;9.55;4.28;;;13.90;99.90;;;;;;5022379;28;20084;-59
2023/06/01 09:13:04;;;;;;;10.02;4.50;;;13.90;99.90;;;;;;5038662;28;20136;-59
2023/06/01 09:15:31;;;;;;;12.98;5.07;;;14.00;99.90;;;;;;5030165;28;20200;-59
2023/06/01 09:18:10;;;;;;;10.52;4.63;;;14.10;99.90;;;;;;5044343;28;20053;-60
2023/06/01 09:20:38;;;;;;;9.65;4.13;;;14.20;99.90;;;;;;5039717;28;20157;-60
2023/06/01 09:23:05;;;;;;;14.35;5.38;;;14.20;99.90;;;;;;5038812;28;20531;-61
2023/06/01 09:25:33;;;;;;;8.85;4.53;;;14.20;99.90;;;;;;5040341;28;20056;-60
2023/06/01 09:28:00;;;;;;;12.63;5.18;;;14.20;99.90;;;;;;5041109;28;20041;-59
2023/06/01 09:30:47;;;;;;;8.57;4.22;;;14.10;99.90;;;;;;5037829;28;20053;-60
2023/06/01 09:33:16;;;;;;;13.93;5.07;;;14.20;99.90;;;;;;5040852;28;20049;-59
2023/06/01 09:35:44;;;;;;;9.20;4.07;;;14.30;99.90;;;;;;5037729;28;20124;-59
2023/06/01 09:38:12;;;;;;;11.65;4.47;;;14.20;99.90;;;;;;5040139;28;20122;-60
2023/06/01 09:40:39;;;;;;;9.02;4.25;;;14.30;99.90;;;;;;5041209;28;20077;-59
2023/06/01 09:43:19;;;;;;;9.82;4.05;;;14.40;99.90;;;;;;5022212;28;20380;-59
2023/06/01 09:46:02;;;;;;;10.35;4.10;;;14.40;99.90;;;;;;5037952;28;20057;-59
2023/06/01 09:48:29;;;;;;;20.13;5.28;;;14.50;99.90;;;;;;5019868;28;20337;-59
2023/06/01 09:50:56;;;;;;;13.38;5.18;;;14.70;99.90;;;;;;5044866;28;20065;-60
2023/06/01 09:53:29;;;;;;;13.00;5.00;;;14.60;99.90;;;;;;5038412;28;20122;-61
2023/06/01 09:55:59;;;;;;;7.05;4.00;;;14.70;99.90;;;;;;5039092;28;20053;-59
2023/06/01 09:58:26;;;;;;;16.65;5.00;;;14.80;99.90;;;;;;5040757;28;20096;-62
2023/06/01 10:00:53;;;;;;;7.00;4.32;;;14.80;99.90;;;;;;5042981;28;20048;-59
2023/06/01 10:03:21;;;;;;;19.23;5.63;;;14.80;99.90;;;;;;5039740;28;20050;-60
2023/06/01 10:05:48;;;;;;;9.75;4.93;;;15.00;99.90;;;;;;5031587;28;20096;-60
2023/06/01 10:08:16;;;;;;;7.47;3.88;;;15.00;99.90;;;;;;4686249;28;10000275;-61
2023/06/01 10:10:48;;;;;;;10.27;3.92;;;15.10;99.90;;;;;;5037010;28;20050;-59
2023/06/01 10:13:15;;;;;;;12.85;4.45;;;15.10;99.90;;;;;;5035286;28;20103;-60
2023/06/01 10:15:42;;;;;;;17.20;4.80;;;15.10;99.90;;;;;;5031098;28;20104;-60
2023/06/01 10:18:09;;;;;;;8.93;3.92;;;15.10;99.90;;;;;;5020582;28;20053;-60
2023/06/01 10:20:37;;;;;;;15.77;4.65;;;15.10;99.90;;;;;;5044653;28;20041;-60
2023/06/01 10:23:04;;;;;;;8.00;4.10;;;15.30;99.90;;;;;;5042190;28;20049;-60
2023/06/01 10:25:43;;;;;;;7.00;4.28;;;15.40;99.90;;;;;;5026904;28;20049;-60
2023/06/01 10:28:11;;;;;;;7.88;4.05;;;15.60;99.90;;;;;;5025796;28;20049;-63
2023/06/01 10:30:47;;;;;;;12.85;4.85;;;15.60;99.90;;;;;;5038951;28;20139;-60
2023/06/01 10:33:14;;;;;;;8.10;4.28;;;15.70;99.90;;;;;;5017459;28;20041;-61
2023/06/01 10:35:48;;;;;;;15.95;4.57;;;15.70;99.90;;;;;;5022867;28;20040;-61
2023/06/01 10:38:17;;;;;;;11.20;5.35;;;15.70;99.90;;;;;;5027659;28;20060;-60
2023/06/01 10:40:44;;;;;;;9.55;4.60;;;15.70;99.90;;;;;;5038614;28;20100;-59
2023/06/01 10:43:36;;;;;;;7.32;4.47;;;15.80;99.90;;;;;;5028187;28;20052;-60
2023/06/01 10:46:03;;;;;;;10.18;3.97;;;15.80;99.90;;;;;;5040386;28;20056;-59
2023/06/01 10:48:51;;;;;;;9.50;4.80;;;15.90;99.90;;;;;;5033017;28;20308;-60
2023/06/01 10:51:19;;;;;;;12.77;4.97;;;16.00;99.90;;;;;;5034818;28;20080;-61
2023/06/01 10:53:46;;;;;;;11.90;5.53;;;16.00;99.90;;;;;;5027187;28;20076;-60
2023/06/01 10:56:23;;;;;;;16.17;5.55;;;16.10;99.90;;;;;;5047367;28;20049;-60
2023/06/01 10:59:09;;;;;;;12.52;4.85;;;16.10;99.90;;;;;;5044372;28;20057;-59
2023/06/01 11:01:45;;;;;;;12.23;4.57;;;16.30;99.90;;;;;;5034201;28;20497;-60
2023/06/01 11:04:13;;;;;;;11.05;4.45;;;16.40;99.90;;;;;;5045699;28;20114;-60
2023/06/01 11:06:42;;;;;;;13.40;5.72;;;16.60;99.90;;;;;;5013176;28;20104;-61
2023/06/01 11:09:12;;;;;;;8.95;4.45;;;16.80;99.90;;;;;;5041440;28;20069;-60
2023/06/01 11:11:51;;;;;;;13.93;4.25;;;16.90;99.90;;;;;;5032661;28;20075;-60
2023/06/01 11:14:23;;;;;;;9.30;4.05;;;16.90;99.90;;;;;;5045020;28;20041;-60
2023/06/01 11:16:52;;;;;;;10.38;4.43;;;17.00;99.90;;;;;;5014447;28;20059;-60
2023/06/01 11:19:25;;;;;;;7.07;4.47;;;17.00;99.90;;;;;;5042529;28;20038;-59
2023/06/01 11:22:01;;;;;;;15.18;5.28;;;17.00;99.90;;;;;;5035351;28;20042;-60
2023/06/01 11:24:33;;;;;;;9.18;5.50;;;17.00;99.90;;;;;;5042593;28;20040;-61
2023/06/01 11:27:06;;;;;;;14.45;5.78;;;17.00;99.90;;;;;;5043441;28;20045;-59
2023/06/01 11:29:34;;;;;;;11.75;5.22;;;17.00;99.90;;;;;;5012850;28;20053;-60
2023/06/01 11:32:03;;;;;;;13.05;4.78;;;17.00;99.90;;;;;;5032418;28;20059;-60
2023/06/01 11:34:38;;;;;;;8.43;5.03;;;17.10;99.90;;;;;;5044138;28;20091;-60
2023/06/01 11:37:06;;;;;;;21.52;5.90;;;17.10;99.90;;;;;;5038858;28;20087;-60
2023/06/01 11:39:33;;;;;;;14.20;5.63;;;17.10;99.90;;;;;;5014639;28;20516;-61
2023/06/01 11:42:07;;;;;;;9.10;4.88;;;17.20;99.90;;;;;;5017045;28;20231;-60
2023/06/01 11:44:36;;;;;;;10.25;5.53;;;17.20;99.90;;;;;;5041002;28;20045;-60
2023/06/01 11:47:05;;;;;;;8.95;4.80;;;17.30;99.90;;;;;;5017447;28;20240;-59
2023/06/01 11:49:50;;;;;;;20.30;5.70;;;17.40;99.90;;;;;;5033198;28;20072;-61
2023/06/01 11:52:17;;;;;;;;;;;17.70;99.90;;;;;;5032782;28;20121;-62
2023/06/01 11:54:44;;;;;;;13.25;5.18;;;17.80;99.90;;;;;;5041504;28;19976;-58
2023/06/01 11:57:11;;;;;;;10.02;4.70;;;18.10;99.90;;;;;;5032663;28;20048;-60
2023/06/01 11:59:43;;;;;;;10.50;5.45;;;18.20;99.90;;;;;;5039558;28;20061;-60
2023/06/01 12:02:21;;;;;;;11.52;4.90;;;18.20;99.90;;;;;;5034083;28;20057;-60
2023/06/01 12:04:58;;;;;;;11.10;5.22;;;18.20;99.90;;;;;;5039055;28;20500;-61
2023/06/01 12:07:25;;;;;;;10.18;5.38;;;18.30;99.90;;;;;;5035760;28;20385;-59
2023/06/01 12:09:53;;;;;;;11.45;5.88;;;18.30;99.90;;;;;;5027457;28;20042;-61
2023/06/01 12:12:24;;;;;;;13.82;5.35;;;18.30;99.90;;;;;;5006913;28;20117;-61
2023/06/01 12:14:51;;;;;;;13.82;5.90;;;18.40;99.90;;;;;;5019018;28;20504;-59
2023/06/01 12:17:19;;;;;;;8.52;5.30;;;18.30;99.90;;;;;;5019807;28;20152;-61
2023/06/01 12:19:48;;;;;;;12.68;5.82;;;18.20;99.90;;;;;;5018763;28;20128;-59
2023/06/01 12:22:16;;;;;;;15.15;5.57;;;18.20;99.90;;;;;;5017196;28;20049;-62
2023/06/01 12:24:46;;;;;;;10.40;5.13;;;18.10;99.90;;;;;;5040580;28;20052;-62
2023/06/01 12:27:15;;;;;;;11.82;5.25;;;18.00;99.90;;;;;;5042860;28;20407;-60
2023/06/01 12:29:43;;;;;;;10.25;5.28;;;17.90;99.90;;;;;;5041159;28;20049;-60
2023/06/01 12:32:11;;;;;;;7.15;4.93;;;17.80;99.90;;;;;;5021811;28;20061;-61
2023/06/01 12:34:39;;;;;;;15.15;5.55;;;17.80;99.90;;;;;;5034983;28;20055;-58
2023/06/01 12:37:18;;;;;;;10.10;5.05;;;17.90;99.90;;;;;;5035340;28;20064;-59
2023/06/01 12:39:53;;;;;;;13.15;6.28;;;17.90;99.90;;;;;;5038510;28;20049;-59
2023/06/01 12:42:37;;;;;;;14.13;5.90;;;18.00;99.90;;;;;;5013563;28;20157;-59
2023/06/01 12:45:08;;;;;;;10.85;5.60;;;18.00;99.90;;;;;;5030935;28;20107;-62
2023/06/01 12:47:39;;;;;;;14.50;6.10;;;18.10;99.90;;;;;;4680240;28;10000179;-59
2023/06/01 12:50:10;;;;;;;16.73;5.82;;;18.20;99.90;;;;;;5032118;28;20333;-61